Pos First Name Last Name YOB Country Start
Num
Time Swim T1 Bike T2 Run
1 Gergő Soós 1999 HUN 1 00:58:17 00:09:35 00:00:18 00:31:53 00:00:17 00:16:16
2 Kamil Damentka 1998 POL 3 00:58:28 00:10:25 00:00:18 00:31:59 00:00:18 00:15:30
3 Klemen Bojanc 1998 SLO 8 00:58:39 00:10:59 00:00:16 00:31:26 00:00:18 00:15:41
4 Peter Luftensteiner 1999 AUT 10 00:59:04 00:10:48 00:00:17 00:31:34 00:00:17 00:16:09
5 Viktor Mészáros 1999 HUN 46 00:59:21 00:10:13 00:00:21 00:32:10 00:00:22 00:16:17
6 Hennadii Anzin 1999 UKR 36 00:59:26 00:09:37 00:00:19 00:32:18 00:00:25 00:16:49
7 Alexandru Ion 1998 ROU 33 00:59:29 00:09:40 00:00:19 00:32:16 00:00:21 00:16:55
8 Valentin Marievskiy 2000 UKR 11 00:59:40 00:10:56 00:00:18 00:32:30 00:00:17 00:15:41
9 Jan Škrjanc 2001 SLO 6 00:59:40 00:09:40 00:00:17 00:32:16 00:00:18 00:17:10
10 Domen Obreza 1999 SLO 17 00:59:58 00:10:26 00:00:16 00:32:00 00:00:17 00:17:00
11 Velizar Velizarov 1999 BUL 38 01:00:06 00:10:43 00:00:15 00:31:44 00:00:17 00:17:09
12 Artjoms Gajevskis 2000 LAT 7 01:00:21 00:10:20 00:00:20 00:32:04 00:00:18 00:17:20
13 Vitalii Vorontsov 2000 UKR 12 01:00:29 00:10:49 00:00:21 00:32:36 00:00:18 00:16:28
14 Kilian Höllmüller 1999 AUT 31 01:00:49 00:10:12 00:00:23 00:32:05 00:00:17 00:17:53
15 Erick Rogoz Lörincz 2001 ROU 22 01:00:58 00:10:35 00:00:20 00:31:44 00:00:21 00:17:59
16 Luka Dumančić 1998 CRO 40 01:01:20 00:09:48 00:00:17 00:33:38 00:00:16 00:17:21
17 Oleksiy Astafyev 1999 UKR 29 01:01:30 00:09:36 00:00:18 00:32:20 00:00:21 00:18:56
18 Cristian Virgil Tranulea 2000 ROU 39 01:01:50 00:09:56 00:00:19 00:33:32 00:00:18 00:17:47
19 Fran Tisaj 2001 CRO 20 01:02:01 00:10:50 00:00:19 00:32:35 00:00:18 00:18:01
20 Žiga Berlec 2001 SLO 24 01:02:27 00:10:51 00:00:24 00:31:29 00:00:20 00:19:25
21 Volodymyr Kritiko 1999 UKR 18 01:02:37 00:10:14 00:00:18 00:33:13 00:00:20 00:18:33
22 Savelijs Suharževskis 1999 LAT 5 01:03:04 00:10:17 00:00:18 00:32:09 00:00:19 00:20:04
23 Stefan Troanca 2000 ROU 27 01:03:14 00:10:29 00:00:20 00:32:58 00:00:20 00:19:09
24 Catalin Romas 2000 ROU 30 01:03:39 00:10:52 00:00:22 00:34:25 00:00:19 00:17:43
25 Stanislav Vanev 1999 BUL 41 01:04:51 00:10:30 00:00:19 00:35:30 00:00:18 00:18:16
26 Luka Grgorinic 1999 CRO 35 01:05:51 00:10:13 00:00:17 00:34:45 00:00:16 00:20:21
27 Nikola Medan 2000 SRB 28 01:06:47 00:10:48 00:00:20 00:35:16 00:00:19 00:20:07
28 Emil Novosad 2000 CRO 21 01:07:18 00:12:06 00:00:18 00:35:54 00:00:21 00:18:41
29 Adrian Morar 2000 ROU 37 01:07:51 00:10:40 00:00:24 00:34:35 00:00:22 00:21:52
30 Luka Penić 2001 CRO 26 01:08:50 00:10:38 00:00:22 00:35:22 00:00:18 00:22:12
31 Gagik Soghomonyan 1998 ARM 42 01:08:54 00:12:48 00:00:26 00:36:03 00:00:29 00:19:09
32 Lyubim Kirilov 2000 BUL 32 01:10:29 00:10:46 00:00:21 00:38:49 00:00:20 00:20:14
33 Uladzislau Davydzenka 2001 BLR 44 01:10:59 00:10:56 00:00:22 00:37:38 00:00:22 00:21:43
DNS Kareem Othman 1998 JOR 14 DNS 00:00:00 00:00:00 00:00:00 00:00:00 00:00:00
DNS Georgios Lavdas 2000 GRE 16 DNS 00:00:00 00:00:00 00:00:00 00:00:00 00:00:00
DNS Bernardo David Moreno Arteaga 2000 ECU 19 DNS 00:00:00 00:00:00 00:00:00 00:00:00 00:00:00
DNS Sergii Sevryukov 1999 UKR 23 DNS 00:00:00 00:00:00 00:00:00 00:00:00 00:00:00
DNS Jēkabs Audzēvičs 2001 LAT 34 DNS 00:00:00 00:00:00 00:00:00 00:00:00 00:00:00
DSQ Daniil Lavrushyn 2001 UKR 45 DSQ 00:10:42 00:00:21 00:34:37 00:00:22 00:18:37
DNF Andrei Sergiu Chis 1999 ROU 2 DNF 00:10:47 00:00:22 00:00:00 00:00:00 00:00:00
DNF Wilhelm Hirsch 1998 GER 4 DNF 00:09:44 00:00:17 00:00:00 00:00:00 00:00:00
DNF Volodymyr Shmanov 2000 UKR 9 DNF 00:10:43 00:00:20 00:00:00 00:00:00 00:00:00
DNF Denis Dudko 1998 BLR 43 DNF 00:10:32 00:00:20 00:00:00 00:00:00 00:00:00
Program notes:

Technical Delegate: Bob Newton/GBR. Race Referee: Josef Pulugor/ROM. Competition Jury: Bob Newton/GBR, Chris Kitchen/IRL, Mihai Ivanov/ROM. Distances: Swim 750 m.(2 laps), Bike 22.5 km (laps), Run 5 km (2 laps). Water temperature: 22.5ºC. Air Temperature 28ºC. Wetsuits not allowed. Athlete #45 Lavrushyn/UKR was disqualified for shortcutting the Bike course. Athlete #10 Luftensteiner/AUT served a 10 seconds penalty during the run segment.